createdAt,value
2023-03-29T15:45:01.172Z,17.70
2023-03-29T15:50:07.284Z,17.40
2023-03-29T15:55:13.400Z,17.50
2023-03-29T16:00:22.536Z,17.60
2023-03-29T16:05:28.276Z,17.60
2023-03-29T16:10:33.587Z,17.70
2023-03-29T16:15:41.433Z,17.80
2023-03-29T16:20:46.916Z,17.90
2023-03-29T16:25:52.425Z,18.00
2023-03-29T16:31:00.511Z,18.00
2023-03-29T16:36:05.854Z,18.00
2023-03-29T16:41:13.615Z,18.00
2023-03-29T16:46:21.672Z,17.90
2023-03-29T16:51:27.560Z,17.80
2023-03-29T16:56:32.976Z,17.70
2023-03-29T17:01:41.015Z,17.60
2023-03-29T17:06:46.396Z,17.50
2023-03-29T17:11:51.701Z,17.40
2023-03-29T17:16:59.693Z,17.30
2023-03-29T17:22:05.282Z,17.20
2023-03-29T17:27:10.956Z,17.10
2023-03-29T17:32:18.909Z,16.90
2023-03-29T17:37:24.468Z,16.80
2023-03-29T17:42:29.977Z,16.60
2023-03-29T17:47:37.935Z,16.40
2023-03-29T17:52:43.974Z,16.30
2023-03-29T17:57:49.489Z,16.10
2023-03-29T18:02:57.664Z,16.10
2023-03-29T18:08:03.319Z,16.00
2023-03-29T18:13:11.407Z,15.80
2023-03-29T18:18:19.242Z,15.70
2023-03-29T18:23:24.463Z,15.60
2023-03-29T18:28:29.931Z,15.50
2023-03-29T18:33:38.139Z,16.00
2023-03-29T18:38:43.991Z,15.50
2023-03-29T18:43:49.612Z,15.30
2023-03-29T18:48:57.764Z,15.20
2023-03-29T18:54:04.366Z,15.10
2023-03-29T18:59:09.732Z,15.00
2023-03-29T19:04:19.722Z,14.90
2023-03-29T19:09:25.168Z,14.90
2023-03-29T19:14:30.872Z,14.80
2023-03-29T19:19:38.739Z,14.80
2023-03-29T19:24:44.169Z,14.70
2023-03-29T19:29:49.797Z,14.70
2023-03-29T19:34:58.537Z,14.60
2023-03-29T19:40:06.692Z,14.60
2023-03-29T19:45:14.306Z,14.60
2023-03-29T19:50:22.195Z,14.50
2023-03-29T19:55:27.565Z,14.50
2023-03-29T20:00:33.348Z,14.50
2023-03-29T20:05:42.147Z,14.40
2023-03-29T20:10:47.606Z,14.40
2023-03-29T20:15:52.950Z,14.40
2023-03-29T20:21:02.127Z,14.40
2023-03-29T20:26:07.852Z,14.30
2023-03-29T20:31:13.758Z,14.10
2023-03-29T20:36:23.135Z,14.10
2023-03-29T20:41:28.585Z,14.10
2023-03-29T20:46:37.968Z,14.00
2023-03-29T20:51:46.683Z,13.90
2023-03-29T20:56:52.000Z,13.80
2023-03-29T21:01:57.253Z,13.80
2023-03-29T21:07:05.381Z,13.80
2023-03-29T21:12:11.401Z,13.70
2023-03-29T21:17:16.937Z,13.60
2023-03-29T21:22:25.074Z,13.50
2023-03-29T21:27:30.618Z,13.50
2023-03-29T21:32:35.900Z,13.50
2023-03-29T21:37:43.852Z,13.50
2023-03-29T21:42:49.144Z,13.50
2023-03-29T21:47:54.345Z,13.50
2023-03-29T21:53:02.116Z,13.50
2023-03-29T21:58:07.430Z,13.50
2023-03-29T22:03:12.753Z,13.40
2023-03-29T22:08:20.876Z,13.40
2023-03-29T22:13:27.109Z,13.40
